sensor_id;sensor_type;location;lat;lon;timestamp;pressure;altitude;pressure_sealevel;temperature;humidity
80542;BME280;69870;51.460;8.842;2023-11-21T00:00:40;97881.91;;;6.93;84.34
80542;BME280;69870;51.460;8.842;2023-11-21T00:03:07;97882.34;;;6.95;84.45
80542;BME280;69870;51.460;8.842;2023-11-21T00:05:34;97886.63;;;6.96;84.33
80542;BME280;69870;51.460;8.842;2023-11-21T00:08:03;97885.50;;;6.97;84.30
80542;BME280;69870;51.460;8.842;2023-11-21T00:10:30;97878.94;;;6.98;84.34
80542;BME280;69870;51.460;8.842;2023-11-21T00:12:57;97880.09;;;6.97;84.49
80542;BME280;69870;51.460;8.842;2023-11-21T00:15:23;97884.25;;;6.95;84.29
80542;BME280;69870;51.460;8.842;2023-11-21T00:17:51;97884.13;;;6.91;84.29
80542;BME280;69870;51.460;8.842;2023-11-21T00:20:18;97888.22;;;6.85;84.67
80542;BME280;69870;51.460;8.842;2023-11-21T00:22:45;97885.28;;;6.78;84.16
80542;BME280;69870;51.460;8.842;2023-11-21T00:25:13;97887.31;;;6.69;84.51
80542;BME280;69870;51.460;8.842;2023-11-21T00:27:42;97888.56;;;6.59;84.78
80542;BME280;69870;51.460;8.842;2023-11-21T00:30:12;97890.25;;;6.52;84.67
80542;BME280;69870;51.460;8.842;2023-11-21T00:32:39;97891.16;;;6.44;84.88
80542;BME280;69870;51.460;8.842;2023-11-21T00:35:06;97890.47;;;6.35;84.72
80542;BME280;69870;51.460;8.842;2023-11-21T00:37:32;97888.34;;;6.28;84.89
80542;BME280;69870;51.460;8.842;2023-11-21T00:39:59;97894.28;;;6.22;85.52
80542;BME280;69870;51.460;8.842;2023-11-21T00:42:28;97890.22;;;6.16;85.44
80542;BME280;69870;51.460;8.842;2023-11-21T00:44:54;97888.88;;;6.10;84.96
80542;BME280;69870;51.460;8.842;2023-11-21T00:47:21;97883.69;;;6.05;85.28
80542;BME280;69870;51.460;8.842;2023-11-21T00:49:48;97895.81;;;5.99;85.38
80542;BME280;69870;51.460;8.842;2023-11-21T00:52:14;97892.88;;;5.91;85.49
80542;BME280;69870;51.460;8.842;2023-11-21T00:54:41;97897.72;;;5.86;85.43
80542;BME280;69870;51.460;8.842;2023-11-21T00:57:08;97903.28;;;5.81;85.50
80542;BME280;69870;51.460;8.842;2023-11-21T00:59:38;97900.00;;;5.75;85.07
80542;BME280;69870;51.460;8.842;2023-11-21T01:02:06;97894.81;;;5.70;85.62
80542;BME280;69870;51.460;8.842;2023-11-21T01:04:35;97902.31;;;5.65;85.47
80542;BME280;69870;51.460;8.842;2023-11-21T01:07:03;97908.69;;;5.60;85.28
80542;BME280;69870;51.460;8.842;2023-11-21T01:09:30;97914.31;;;5.55;85.09
80542;BME280;69870;51.460;8.842;2023-11-21T01:11:57;97918.78;;;5.51;85.19
80542;BME280;69870;51.460;8.842;2023-11-21T01:14:25;97925.50;;;5.45;85.59
80542;BME280;69870;51.460;8.842;2023-11-21T01:16:54;97921.88;;;5.41;85.23
80542;BME280;69870;51.460;8.842;2023-11-21T01:19:20;97929.53;;;5.39;85.67
80542;BME280;69870;51.460;8.842;2023-11-21T01:21:47;97923.22;;;5.35;85.67
80542;BME280;69870;51.460;8.842;2023-11-21T01:24:14;97931.94;;;5.32;85.30
80542;BME280;69870;51.460;8.842;2023-11-21T01:26:41;97931.03;;;5.28;85.81
80542;BME280;69870;51.460;8.842;2023-11-21T01:29:08;97936.28;;;5.25;85.65
80542;BME280;69870;51.460;8.842;2023-11-21T01:31:35;97943.13;;;5.22;85.36
80542;BME280;69870;51.460;8.842;2023-11-21T01:34:03;97933.00;;;5.19;85.72
80542;BME280;69870;51.460;8.842;2023-11-21T01:36:30;97940.63;;;5.17;85.22
80542;BME280;69870;51.460;8.842;2023-11-21T01:38:58;97942.88;;;5.15;85.57
80542;BME280;69870;51.460;8.842;2023-11-21T01:41:25;97948.91;;;5.12;86.00
80542;BME280;69870;51.460;8.842;2023-11-21T01:43:52;97946.06;;;5.08;85.77
80542;BME280;69870;51.460;8.842;2023-11-21T01:46:19;97952.56;;;5.07;85.73
80542;BME280;69870;51.460;8.842;2023-11-21T01:48:46;97945.47;;;5.03;85.76
80542;BME280;69870;51.460;8.842;2023-11-21T01:51:16;97946.59;;;5.02;86.12
80542;BME280;69870;51.460;8.842;2023-11-21T01:53:44;97950.72;;;4.99;86.06
80542;BME280;69870;51.460;8.842;2023-11-21T01:56:12;97955.66;;;4.97;85.29
80542;BME280;69870;51.460;8.842;2023-11-21T01:58:39;97950.91;;;4.94;85.98
80542;BME280;69870;51.460;8.842;2023-11-21T02:01:06;97951.09;;;4.89;85.48
80542;BME280;69870;51.460;8.842;2023-11-21T02:03:32;97951.75;;;4.86;85.53
80542;BME280;69870;51.460;8.842;2023-11-21T02:05:59;97949.72;;;4.83;85.74
80542;BME280;69870;51.460;8.842;2023-11-21T02:08:27;97950.03;;;4.82;85.64
80542;BME280;69870;51.460;8.842;2023-11-21T02:10:53;97961.91;;;4.81;85.62
80542;BME280;69870;51.460;8.842;2023-11-21T02:13:20;97961.13;;;4.80;86.03
80542;BME280;69870;51.460;8.842;2023-11-21T02:15:46;97963.81;;;4.80;85.64
80542;BME280;69870;51.460;8.842;2023-11-21T02:18:15;97970.78;;;4.81;85.65
80542;BME280;69870;51.460;8.842;2023-11-21T02:20:43;97966.97;;;4.82;85.49
80542;BME280;69870;51.460;8.842;2023-11-21T02:23:11;97963.97;;;4.84;85.39
80542;BME280;69870;51.460;8.842;2023-11-21T02:25:38;97963.31;;;4.87;85.04
80542;BME280;69870;51.460;8.842;2023-11-21T02:28:04;97969.50;;;4.87;85.26
80542;BME280;69870;51.460;8.842;2023-11-21T02:30:32;97970.75;;;4.90;84.82
80542;BME280;69870;51.460;8.842;2023-11-21T02:33:01;97972.00;;;4.92;84.95
80542;BME280;69870;51.460;8.842;2023-11-21T02:35:28;97976.59;;;4.92;85.78
80542;BME280;69870;51.460;8.842;2023-11-21T02:37:57;97971.22;;;4.92;85.24
80542;BME280;69870;51.460;8.842;2023-11-21T02:40:25;97972.00;;;4.92;85.03
80542;BME280;69870;51.460;8.842;2023-11-21T02:42:52;97972.13;;;4.96;85.51
80542;BME280;69870;51.460;8.842;2023-11-21T02:45:19;97968.78;;;4.99;85.10
80542;BME280;69870;51.460;8.842;2023-11-21T02:47:47;97969.25;;;5.01;85.26
80542;BME280;69870;51.460;8.842;2023-11-21T02:50:14;97971.63;;;5.02;85.38
80542;BME280;69870;51.460;8.842;2023-11-21T02:52:41;97968.63;;;5.04;85.51
80542;BME280;69870;51.460;8.842;2023-11-21T02:55:08;97968.16;;;5.02;84.83
80542;BME280;69870;51.460;8.842;2023-11-21T02:57:36;97963.06;;;5.00;84.71
80542;BME280;69870;51.460;8.842;2023-11-21T03:00:04;97970.69;;;4.98;85.42
80542;BME280;69870;51.460;8.842;2023-11-21T03:02:33;97974.19;;;4.99;85.16
80542;BME280;69870;51.460;8.842;2023-11-21T03:05:04;97966.09;;;4.99;84.54
80542;BME280;69870;51.460;8.842;2023-11-21T03:07:31;97971.50;;;4.99;84.88
80542;BME280;69870;51.460;8.842;2023-11-21T03:09:57;97966.91;;;4.99;84.80
80542;BME280;69870;51.460;8.842;2023-11-21T03:12:24;97982.41;;;5.02;85.37
80542;BME280;69870;51.460;8.842;2023-11-21T03:14:52;97978.59;;;5.03;85.14
80542;BME280;69870;51.460;8.842;2023-11-21T03:17:20;97980.97;;;5.05;84.65
80542;BME280;69870;51.460;8.842;2023-11-21T03:19:47;97986.81;;;5.07;84.89
80542;BME280;69870;51.460;8.842;2023-11-21T03:22:14;97985.69;;;5.08;85.23
80542;BME280;69870;51.460;8.842;2023-11-21T03:24:40;97988.72;;;5.06;84.65
80542;BME280;69870;51.460;8.842;2023-11-21T03:27:07;98002.97;;;5.07;84.89
80542;BME280;69870;51.460;8.842;2023-11-21T03:29:34;97995.84;;;5.11;84.93
80542;BME280;69870;51.460;8.842;2023-11-21T03:32:02;98001.22;;;5.11;85.14
80542;BME280;69870;51.460;8.842;2023-11-21T03:34:29;98004.38;;;5.13;85.30
80542;BME280;69870;51.460;8.842;2023-11-21T03:36:55;98004.84;;;5.15;84.74
80542;BME280;69870;51.460;8.842;2023-11-21T03:39:22;98011.50;;;5.17;84.69
80542;BME280;69870;51.460;8.842;2023-11-21T03:41:49;98005.78;;;5.19;84.51
80542;BME280;69870;51.460;8.842;2023-11-21T03:44:17;98006.88;;;5.18;84.96
80542;BME280;69870;51.460;8.842;2023-11-21T03:46:44;98011.50;;;5.17;84.65
80542;BME280;69870;51.460;8.842;2023-11-21T03:49:12;98003.41;;;5.17;85.43
80542;BME280;69870;51.460;8.842;2023-11-21T03:51:41;98013.84;;;5.19;85.25
80542;BME280;69870;51.460;8.842;2023-11-21T03:54:07;98013.84;;;5.19;84.82
80542;BME280;69870;51.460;8.842;2023-11-21T03:56:34;98010.03;;;5.20;84.85
80542;BME280;69870;51.460;8.842;2023-11-21T03:59:00;98012.41;;;5.22;84.88
80542;BME280;69870;51.460;8.842;2023-11-21T04:01:27;98016.38;;;5.24;84.89
80542;BME280;69870;51.460;8.842;2023-11-21T04:03:53;98016.38;;;5.24;84.58
80542;BME280;69870;51.460;8.842;2023-11-21T04:06:21;98024.13;;;5.26;84.53
80542;BME280;69870;51.460;8.842;2023-11-21T04:08:47;98023.03;;;5.27;84.59
80542;BME280;69870;51.460;8.842;2023-11-21T04:11:14;98026.19;;;5.29;84.73
80542;BME280;69870;51.460;8.842;2023-11-21T04:13:41;98035.81;;;5.30;84.99
80542;BME280;69870;51.460;8.842;2023-11-21T04:16:08;98035.03;;;5.29;84.55
80542;BME280;69870;51.460;8.842;2023-11-21T04:18:36;98035.81;;;5.30;84.91
80542;BME280;69870;51.460;8.842;2023-11-21T04:21:03;98041.69;;;5.32;85.18
80542;BME280;69870;51.460;8.842;2023-11-21T04:23:31;98046.75;;;5.33;84.76
80542;BME280;69870;51.460;8.842;2023-11-21T04:25:57;98049.47;;;5.33;85.11
80542;BME280;69870;51.460;8.842;2023-11-21T04:28:24;98047.22;;;5.35;84.54
80542;BME280;69870;51.460;8.842;2023-11-21T04:30:51;98056.41;;;5.34;85.07
80542;BME280;69870;51.460;8.842;2023-11-21T04:33:17;98057.22;;;5.35;84.69
80542;BME280;69870;51.460;8.842;2023-11-21T04:35:44;98061.63;;;5.39;84.53
80542;BME280;69870;51.460;8.842;2023-11-21T04:38:11;98058.25;;;5.42;84.55
80542;BME280;69870;51.460;8.842;2023-11-21T04:40:39;98060.31;;;5.45;84.70
80542;BME280;69870;51.460;8.842;2023-11-21T04:43:06;98058.06;;;5.47;84.76
80542;BME280;69870;51.460;8.842;2023-11-21T04:45:32;98072.81;;;5.50;84.95
80542;BME280;69870;51.460;8.842;2023-11-21T04:47:59;98072.19;;;5.53;84.55
80542;BME280;69870;51.460;8.842;2023-11-21T04:50:25;98072.97;;;5.53;85.18
80542;BME280;69870;51.460;8.842;2023-11-21T04:52:52;98082.63;;;5.54;84.76
80542;BME280;69870;51.460;8.842;2023-11-21T04:55:19;98083.09;;;5.56;84.23
80542;BME280;69870;51.460;8.842;2023-11-21T04:57:47;98077.34;;;5.58;84.49
80542;BME280;69870;51.460;8.842;2023-11-21T05:00:13;98085.59;;;5.61;85.06
80542;BME280;69870;51.460;8.842;2023-11-21T05:02:41;98092.25;;;5.64;84.87
80542;BME280;69870;51.460;8.842;2023-11-21T05:05:09;98093.50;;;5.66;84.85
80542;BME280;69870;51.460;8.842;2023-11-21T05:07:36;98083.94;;;5.69;84.42
80542;BME280;69870;51.460;8.842;2023-11-21T05:10:04;98092.19;;;5.72;84.50
80542;BME280;69870;51.460;8.842;2023-11-21T05:12:33;98092.19;;;5.72;84.47
80542;BME280;69870;51.460;8.842;2023-11-21T05:15:04;98090.75;;;5.75;84.33
80542;BME280;69870;51.460;8.842;2023-11-21T05:17:33;98098.97;;;5.78;84.92
80542;BME280;69870;51.460;8.842;2023-11-21T05:20:00;98107.06;;;5.78;84.41
80542;BME280;69870;51.460;8.842;2023-11-21T05:22:29;98093.56;;;5.78;84.46
80542;BME280;69870;51.460;8.842;2023-11-21T05:24:55;98104.38;;;5.78;84.88
80542;BME280;69870;51.460;8.842;2023-11-21T05:27:24;98107.06;;;5.78;84.61
80542;BME280;69870;51.460;8.842;2023-11-21T05:29:51;98104.81;;;5.80;84.96
80542;BME280;69870;51.460;8.842;2023-11-21T05:32:19;98110.22;;;5.80;84.72
80542;BME280;69870;51.460;8.842;2023-11-21T05:34:45;98106.75;;;5.80;84.55
80542;BME280;69870;51.460;8.842;2023-11-21T05:37:12;98115.63;;;5.80;84.79
80542;BME280;69870;51.460;8.842;2023-11-21T05:39:38;98113.38;;;5.82;85.05
80542;BME280;69870;51.460;8.842;2023-11-21T05:42:05;98110.41;;;5.84;84.87
80542;BME280;69870;51.460;8.842;2023-11-21T05:44:34;98101.47;;;5.83;84.96
80542;BME280;69870;51.460;8.842;2023-11-21T05:47:00;98109.72;;;5.87;85.11
80542;BME280;69870;51.460;8.842;2023-11-21T05:49:28;98101.31;;;5.88;84.62
80542;BME280;69870;51.460;8.842;2023-11-21T05:51:56;98103.69;;;5.90;84.73
80542;BME280;69870;51.460;8.842;2023-11-21T05:54:22;98107.19;;;5.90;84.97
80542;BME280;69870;51.460;8.842;2023-11-21T05:56:49;98110.97;;;5.89;84.81
80542;BME280;69870;51.460;8.842;2023-11-21T05:59:15;98109.88;;;5.90;85.14
80542;BME280;69870;51.460;8.842;2023-11-21T06:01:42;98111.13;;;5.93;84.72
80542;BME280;69870;51.460;8.842;2023-11-21T06:04:09;98115.41;;;5.94;85.10
80542;BME280;69870;51.460;8.842;2023-11-21T06:06:37;98119.34;;;5.97;84.71
80542;BME280;69870;51.460;8.842;2023-11-21T06:09:04;98125.53;;;5.97;85.21
80542;BME280;69870;51.460;8.842;2023-11-21T06:11:31;98120.94;;;5.98;84.95
80542;BME280;69870;51.460;8.842;2023-11-21T06:13:57;98117.56;;;6.01;85.01
80542;BME280;69870;51.460;8.842;2023-11-21T06:16:24;98123.75;;;6.01;84.79
80542;BME280;69870;51.460;8.842;2023-11-21T06:18:51;98127.25;;;6.02;85.14
80542;BME280;69870;51.460;8.842;2023-11-21T06:21:17;98135.81;;;6.04;85.19
80542;BME280;69870;51.460;8.842;2023-11-21T06:23:45;98138.19;;;6.05;84.86
80542;BME280;69870;51.460;8.842;2023-11-21T06:26:11;98142.94;;;6.08;85.00
80542;BME280;69870;51.460;8.842;2023-11-21T06:28:38;98146.09;;;6.10;84.83
80542;BME280;69870;51.460;8.842;2023-11-21T06:31:05;98152.28;;;6.11;84.87
80542;BME280;69870;51.460;8.842;2023-11-21T06:33:32;98151.94;;;6.12;84.94
80542;BME280;69870;51.460;8.842;2023-11-21T06:35:58;98156.63;;;6.24;85.43
80542;BME280;69870;51.460;8.842;2023-11-21T06:38:28;98147.66;;;6.32;85.11
80542;BME280;69870;51.460;8.842;2023-11-21T06:40:58;98150.81;;;6.34;85.25
80542;BME280;69870;51.460;8.842;2023-11-21T06:43:27;98157.81;;;6.35;84.87
80542;BME280;69870;51.460;8.842;2023-11-21T06:45:53;98156.69;;;6.36;84.90
80542;BME280;69870;51.460;8.842;2023-11-21T06:48:20;98161.31;;;6.35;84.97
80542;BME280;69870;51.460;8.842;2023-11-21T06:50:46;98171.31;;;6.35;85.00
80542;BME280;69870;51.460;8.842;2023-11-21T06:53:13;98175.91;;;6.34;84.72
80542;BME280;69870;51.460;8.842;2023-11-21T06:55:40;98176.25;;;6.33;84.85
80542;BME280;69870;51.460;8.842;2023-11-21T06:58:08;98181.31;;;6.34;84.90
80542;BME280;69870;51.460;8.842;2023-11-21T07:00:34;98182.13;;;6.35;85.11
80542;BME280;69870;51.460;8.842;2023-11-21T07:03:01;98182.56;;;6.37;84.90
80542;BME280;69870;51.460;8.842;2023-11-21T07:05:27;98182.69;;;6.40;84.94
80542;BME280;69870;51.460;8.842;2023-11-21T07:07:54;98193.19;;;6.42;84.96
80542;BME280;69870;51.460;8.842;2023-11-21T07:10:20;98199.50;;;6.46;84.68
80542;BME280;69870;51.460;8.842;2023-11-21T07:12:47;98194.09;;;6.46;84.98
80542;BME280;69870;51.460;8.842;2023-11-21T07:15:15;98191.84;;;6.48;84.71
80542;BME280;69870;51.460;8.842;2023-11-21T07:17:41;98200.09;;;6.51;84.99
80542;BME280;69870;51.460;8.842;2023-11-21T07:20:10;98200.22;;;6.55;84.84
80542;BME280;69870;51.460;8.842;2023-11-21T07:22:37;98207.66;;;6.58;84.94
80542;BME280;69870;51.460;8.842;2023-11-21T07:25:04;98214.31;;;6.60;84.90
80542;BME280;69870;51.460;8.842;2023-11-21T07:27:32;98219.06;;;6.63;84.73
80542;BME280;69870;51.460;8.842;2023-11-21T07:30:00;98207.91;;;6.65;84.89
80542;BME280;69870;51.460;8.842;2023-11-21T07:32:31;98216.47;;;6.67;85.09
80542;BME280;69870;51.460;8.842;2023-11-21T07:34:57;98210.44;;;6.70;84.84
80542;BME280;69870;51.460;8.842;2023-11-21T07:37:25;98219.63;;;6.69;85.01
80542;BME280;69870;51.460;8.842;2023-11-21T07:39:54;98229.81;;;6.72;84.66
80542;BME280;69870;51.460;8.842;2023-11-21T07:42:21;98221.03;;;6.75;84.97
80542;BME280;69870;51.460;8.842;2023-11-21T07:44:48;98232.75;;;6.79;85.02
80542;BME280;69870;51.460;8.842;2023-11-21T07:47:15;98230.97;;;6.83;84.72
80542;BME280;69870;51.460;8.842;2023-11-21T07:49:43;98231.09;;;6.87;84.95
80542;BME280;69870;51.460;8.842;2023-11-21T07:52:10;98241.59;;;6.88;84.84
80542;BME280;69870;51.460;8.842;2023-11-21T07:54:36;98243.63;;;6.91;85.01
80542;BME280;69870;51.460;8.842;2023-11-21T07:57:03;98245.66;;;6.94;84.93
80542;BME280;69870;51.460;8.842;2023-11-21T07:59:30;98255.81;;;6.97;85.14
80542;BME280;69870;51.460;8.842;2023-11-21T08:01:57;98258.97;;;6.99;85.29
80542;BME280;69870;51.460;8.842;2023-11-21T08:04:23;98255.59;;;7.02;84.98
80542;BME280;69870;51.460;8.842;2023-11-21T08:06:51;98263.06;;;7.05;85.10
80542;BME280;69870;51.460;8.842;2023-11-21T08:09:17;98268.59;;;7.09;85.00
80542;BME280;69870;51.460;8.842;2023-11-21T08:11:44;98275.25;;;7.11;84.84
80542;BME280;69870;51.460;8.842;2023-11-21T08:14:11;98282.69;;;7.14;85.11
80542;BME280;69870;51.460;8.842;2023-11-21T08:16:38;98281.25;;;7.17;84.90
80542;BME280;69870;51.460;8.842;2023-11-21T08:19:04;98284.75;;;7.17;84.73
80542;BME280;69870;51.460;8.842;2023-11-21T08:21:31;98286.78;;;7.20;85.05
80542;BME280;69870;51.460;8.842;2023-11-21T08:23:59;98283.06;;;7.25;84.91
80542;BME280;69870;51.460;8.842;2023-11-21T08:26:25;98284.66;;;7.26;85.15
80542;BME280;69870;51.460;8.842;2023-11-21T08:28:52;98287.03;;;7.27;85.12
80542;BME280;69870;51.460;8.842;2023-11-21T08:31:23;98287.94;;;7.31;84.89
80542;BME280;69870;51.460;8.842;2023-11-21T08:33:49;98290.44;;;7.36;85.13
80542;BME280;69870;51.460;8.842;2023-11-21T08:36:16;98291.34;;;7.40;85.00
80542;BME280;69870;51.460;8.842;2023-11-21T08:38:42;98291.50;;;7.44;84.97
80542;BME280;69870;51.460;8.842;2023-11-21T08:41:11;98292.75;;;7.47;85.02
80542;BME280;69870;51.460;8.842;2023-11-21T08:43:40;98290.16;;;7.50;84.87
80542;BME280;69870;51.460;8.842;2023-11-21T08:46:07;98288.34;;;7.54;84.93
80542;BME280;69870;51.460;8.842;2023-11-21T08:48:35;98291.19;;;7.58;84.78
80542;BME280;69870;51.460;8.842;2023-11-21T08:51:02;98293.22;;;7.61;84.73
80542;BME280;69870;51.460;8.842;2023-11-21T08:53:29;98292.56;;;7.64;84.79
80542;BME280;69870;51.460;8.842;2023-11-21T08:55:56;98295.50;;;7.71;85.10
80542;BME280;69870;51.460;8.842;2023-11-21T08:58:24;98296.06;;;7.76;84.71
80542;BME280;69870;51.460;8.842;2023-11-21T09:00:50;98295.84;;;7.81;84.59
80542;BME280;69870;51.460;8.842;2023-11-21T09:03:17;98299.13;;;7.87;84.58
80542;BME280;69870;51.460;8.842;2023-11-21T09:05:43;98299.69;;;7.92;84.93
80542;BME280;69870;51.460;8.842;2023-11-21T09:08:10;98308.06;;;7.99;84.48
80542;BME280;69870;51.460;8.842;2023-11-21T09:10:36;98305.91;;;8.05;84.96
80542;BME280;69870;51.460;8.842;2023-11-21T09:13:04;98306.16;;;8.12;84.81
80542;BME280;69870;51.460;8.842;2023-11-21T09:15:32;98317.22;;;8.19;84.90
80542;BME280;69870;51.460;8.842;2023-11-21T09:17:59;98315.22;;;8.28;84.82
80542;BME280;69870;51.460;8.842;2023-11-21T09:20:26;98318.16;;;8.35;84.07
80542;BME280;69870;51.460;8.842;2023-11-21T09:22:53;98316.78;;;8.41;84.84
80542;BME280;69870;51.460;8.842;2023-11-21T09:25:20;98316.56;;;8.46;84.17
80542;BME280;69870;51.460;8.842;2023-11-21T09:27:48;98319.03;;;8.51;84.80
80542;BME280;69870;51.460;8.842;2023-11-21T09:30:14;98324.22;;;8.56;84.35
80542;BME280;69870;51.460;8.842;2023-11-21T09:32:43;98329.44;;;8.61;84.05
80542;BME280;69870;51.460;8.842;2023-11-21T09:35:11;98330.31;;;8.65;84.50
80542;BME280;69870;51.460;8.842;2023-11-21T09:37:39;98343.66;;;8.70;83.79
80542;BME280;69870;51.460;8.842;2023-11-21T09:40:09;98343.75;;;8.74;84.22
80542;BME280;69870;51.460;8.842;2023-11-21T09:42:39;98348.50;;;8.77;83.69
80542;BME280;69870;51.460;8.842;2023-11-21T09:45:14;98338.56;;;8.81;84.42
80542;BME280;69870;51.460;8.842;2023-11-21T09:47:43;98346.47;;;8.86;83.71
80542;BME280;69870;51.460;8.842;2023-11-21T09:50:10;98348.47;;;8.89;84.74
80542;BME280;69870;51.460;8.842;2023-11-21T09:52:42;98350.16;;;8.94;84.74
80542;BME280;69870;51.460;8.842;2023-11-21T09:55:13;98349.94;;;8.99;84.64
80542;BME280;69870;51.460;8.842;2023-11-21T09:57:42;98350.81;;;9.03;83.64
80542;BME280;69870;51.460;8.842;2023-11-21T10:00:10;98349.00;;;9.07;84.08
80542;BME280;69870;51.460;8.842;2023-11-21T10:02:38;98363.47;;;9.11;83.89
80542;BME280;69870;51.460;8.842;2023-11-21T10:05:07;98354.75;;;9.17;84.09
80542;BME280;69870;51.460;8.842;2023-11-21T10:07:37;98359.25;;;9.25;84.18
80542;BME280;69870;51.460;8.842;2023-11-21T10:10:07;98349.63;;;9.28;83.90
80542;BME280;69870;51.460;8.842;2023-11-21T10:12:35;98349.41;;;9.33;84.19
80542;BME280;69870;51.460;8.842;2023-11-21T10:15:03;98349.13;;;9.38;83.76
80542;BME280;69870;51.460;8.842;2023-11-21T10:17:33;98355.19;;;9.47;83.63
80542;BME280;69870;51.460;8.842;2023-11-21T10:20:10;98356.78;;;9.48;83.42
80542;BME280;69870;51.460;8.842;2023-11-21T10:22:39;98352.03;;;9.45;83.74
80542;BME280;69870;51.460;8.842;2023-11-21T10:25:07;98360.47;;;9.40;83.30
80542;BME280;69870;51.460;8.842;2023-11-21T10:27:34;98362.53;;;9.31;83.93
80542;BME280;69870;51.460;8.842;2023-11-21T10:30:00;98370.19;;;9.29;83.70
80542;BME280;69870;51.460;8.842;2023-11-21T10:32:28;98367.16;;;9.30;84.20
80542;BME280;69870;51.460;8.842;2023-11-21T10:34:57;98370.31;;;9.32;84.46
80542;BME280;69870;51.460;8.842;2023-11-21T10:37:26;98365.03;;;9.24;84.32
80542;BME280;69870;51.460;8.842;2023-11-21T10:39:57;98369.31;;;9.25;84.57
80542;BME280;69870;51.460;8.842;2023-11-21T10:42:23;98378.59;;;9.24;84.94
80542;BME280;69870;51.460;8.842;2023-11-21T10:44:52;98374.63;;;9.21;84.20
80542;BME280;69870;51.460;8.842;2023-11-21T10:47:19;98375.00;;;9.20;83.94
80542;BME280;69870;51.460;8.842;2023-11-21T10:49:48;98370.69;;;9.19;84.17
80542;BME280;69870;51.460;8.842;2023-11-21T10:52:15;98379.41;;;9.12;84.35
80542;BME280;69870;51.460;8.842;2023-11-21T10:54:44;98386.22;;;9.06;84.78
80542;BME280;69870;51.460;8.842;2023-11-21T10:57:10;98383.03;;;9.04;84.71
80542;BME280;69870;51.460;8.842;2023-11-21T10:59:41;98383.38;;;9.03;84.38
80542;BME280;69870;51.460;8.842;2023-11-21T11:02:20;98387.31;;;9.05;84.67
80542;BME280;69870;51.460;8.842;2023-11-21T11:04:48;98386.22;;;9.06;84.85
80542;BME280;69870;51.460;8.842;2023-11-21T11:07:15;98394.00;;;9.08;84.17
80542;BME280;69870;51.460;8.842;2023-11-21T11:09:44;98390.84;;;9.06;84.55
80542;BME280;69870;51.460;8.842;2023-11-21T11:12:12;98396.94;;;9.03;84.88
80542;BME280;69870;51.460;8.842;2023-11-21T11:14:40;98387.91;;;8.99;84.76
80542;BME280;69870;51.460;8.842;2023-11-21T11:17:09;98384.66;;;8.93;84.61
80542;BME280;69870;51.460;8.842;2023-11-21T11:19:36;98395.81;;;8.92;84.86
80542;BME280;69870;51.460;8.842;2023-11-21T11:22:15;98395.38;;;8.90;84.54
80542;BME280;69870;51.460;8.842;2023-11-21T11:25:10;98394.69;;;8.93;84.85
80542;BME280;69870;51.460;8.842;2023-11-21T11:27:48;98404.06;;;8.95;84.13
80542;BME280;69870;51.460;8.842;2023-11-21T11:30:28;98400.69;;;8.86;84.38
80542;BME280;69870;51.460;8.842;2023-11-21T11:33:10;98407.34;;;8.76;84.71
80542;BME280;69870;51.460;8.842;2023-11-21T11:35:46;98398.88;;;8.78;84.83
80542;BME280;69870;51.460;8.842;2023-11-21T11:38:17;98405.22;;;8.82;84.36
80542;BME280;69870;51.460;8.842;2023-11-21T11:40:46;98407.47;;;8.80;84.70
80542;BME280;69870;51.460;8.842;2023-11-21T11:43:13;98419.31;;;8.88;84.68
80542;BME280;69870;51.460;8.842;2023-11-21T11:45:50;98413.91;;;9.00;84.50
80542;BME280;69870;51.460;8.842;2023-11-21T11:48:21;98410.63;;;9.06;84.45
80542;BME280;69870;51.460;8.842;2023-11-21T11:51:04;98414.56;;;9.09;84.46
80542;BME280;69870;51.460;8.842;2023-11-21T11:53:36;98419.19;;;9.08;83.78
80542;BME280;69870;51.460;8.842;2023-11-21T11:56:22;98413.44;;;9.10;84.05
80542;BME280;69870;51.460;8.842;2023-11-21T11:58:51;98418.06;;;9.09;84.10
80542;BME280;69870;51.460;8.842;2023-11-21T12:01:18;98418.84;;;9.10;84.14
80542;BME280;69870;51.460;8.842;2023-11-21T12:04:22;98418.97;;;9.13;83.71
80542;BME280;69870;51.460;8.842;2023-11-21T12:06:51;98427.13;;;9.13;83.09
80542;BME280;69870;51.460;8.842;2023-11-21T12:09:18;98432.41;;;9.10;84.04
80542;BME280;69870;51.460;8.842;2023-11-21T12:11:48;98430.72;;;9.05;83.70
80542;BME280;69870;51.460;8.842;2023-11-21T12:14:15;98435.25;;;9.01;83.99
80542;BME280;69870;51.460;8.842;2023-11-21T12:16:42;98437.75;;;8.94;84.20
80542;BME280;69870;51.460;8.842;2023-11-21T12:19:09;98449.50;;;8.86;84.41
80542;BME280;69870;51.460;8.842;2023-11-21T12:21:36;98453.91;;;8.78;84.19
80542;BME280;69870;51.460;8.842;2023-11-21T12:24:03;98453.34;;;8.73;84.33
80542;BME280;69870;51.460;8.842;2023-11-21T12:26:34;98458.78;;;8.73;84.15
80542;BME280;69870;51.460;8.842;2023-11-21T12:29:02;98456.28;;;8.68;84.62
80542;BME280;69870;51.460;8.842;2023-11-21T12:31:30;98448.81;;;8.65;84.50
80542;BME280;69870;51.460;8.842;2023-11-21T12:33:57;98458.53;;;8.66;84.38
80542;BME280;69870;51.460;8.842;2023-11-21T12:36:24;98462.50;;;8.68;84.83
80542;BME280;69870;51.460;8.842;2023-11-21T12:38:51;98466.44;;;8.71;84.29
80542;BME280;69870;51.460;8.842;2023-11-21T12:41:17;98473.09;;;8.73;84.09
80542;BME280;69870;51.460;8.842;2023-11-21T12:43:44;98468.81;;;8.72;84.30
80542;BME280;69870;51.460;8.842;2023-11-21T12:46:14;98466.09;;;8.72;84.62
80542;BME280;69870;51.460;8.842;2023-11-21T12:48:43;98473.09;;;8.73;84.71
80542;BME280;69870;51.460;8.842;2023-11-21T12:51:11;98483.28;;;8.76;84.18
80542;BME280;69870;51.460;8.842;2023-11-21T12:53:39;98473.22;;;8.77;84.70
80542;BME280;69870;51.460;8.842;2023-11-21T12:56:07;98472.06;;;8.78;84.48
80542;BME280;69870;51.460;8.842;2023-11-21T12:58:35;98477.84;;;8.76;84.33
80542;BME280;69870;51.460;8.842;2023-11-21T13:01:01;98484.41;;;8.75;84.77
80542;BME280;69870;51.460;8.842;2023-11-21T13:03:30;98487.59;;;8.77;84.93
80542;BME280;69870;51.460;8.842;2023-11-21T13:05:58;98498.06;;;8.79;84.50
80542;BME280;69870;51.460;8.842;2023-11-21T13:08:26;98496.63;;;8.81;84.66
80542;BME280;69870;51.460;8.842;2023-11-21T13:10:56;98489.72;;;8.84;84.29
80542;BME280;69870;51.460;8.842;2023-11-21T13:13:25;98499.56;;;8.89;84.47